!!! Benutzen Sie für Ihre Flugvorbereitung die offiziellen Quellen !!!

Metar:

EDQM 181650Z 18005KT 150V210 9999 OVC024 M00/M06 Q1025

QNH: 1025
Temperatur: 0
Dew Point : -6

 

METAR (decoded)